sensor_id;sensor_type;location;lat;lon;timestamp;P1;durP1;ratioP1;P2;durP2;ratioP2
71127;SDS011;59249;59.736;30.568;2023-09-19T00:00:58;5.80;;;2.53;;
71127;SDS011;59249;59.736;30.568;2023-09-19T00:03:27;4.72;;;2.10;;
71127;SDS011;59249;59.736;30.568;2023-09-19T00:05:57;7.40;;;2.25;;
71127;SDS011;59249;59.736;30.568;2023-09-19T00:08:26;5.18;;;2.10;;
71127;SDS011;59249;59.736;30.568;2023-09-19T00:10:57;7.47;;;2.45;;
71127;SDS011;59249;59.736;30.568;2023-09-19T00:13:31;6.63;;;2.53;;
71127;SDS011;59249;59.736;30.568;2023-09-19T00:16:00;7.68;;;2.72;;
71127;SDS011;59249;59.736;30.568;2023-09-19T00:18:30;6.63;;;2.85;;
71127;SDS011;59249;59.736;30.568;2023-09-19T00:21:01;7.22;;;3.10;;
71127;SDS011;59249;59.736;30.568;2023-09-19T00:23:31;7.38;;;2.80;;
71127;SDS011;59249;59.736;30.568;2023-09-19T00:26:01;9.80;;;3.90;;
71127;SDS011;59249;59.736;30.568;2023-09-19T00:28:31;12.65;;;4.15;;
71127;SDS011;59249;59.736;30.568;2023-09-19T00:30:59;10.93;;;3.75;;
71127;SDS011;59249;59.736;30.568;2023-09-19T00:33:31;11.18;;;4.03;;
71127;SDS011;59249;59.736;30.568;2023-09-19T00:36:01;10.25;;;4.28;;
71127;SDS011;59249;59.736;30.568;2023-09-19T00:38:32;12.43;;;4.13;;
71127;SDS011;59249;59.736;30.568;2023-09-19T00:41:02;11.68;;;3.90;;
71127;SDS011;59249;59.736;30.568;2023-09-19T00:43:31;12.80;;;4.45;;
71127;SDS011;59249;59.736;30.568;2023-09-19T00:46:01;13.05;;;4.40;;
71127;SDS011;59249;59.736;30.568;2023-09-19T00:48:36;10.82;;;4.78;;
71127;SDS011;59249;59.736;30.568;2023-09-19T00:51:10;12.13;;;4.10;;
71127;SDS011;59249;59.736;30.568;2023-09-19T00:53:41;11.02;;;4.10;;
71127;SDS011;59249;59.736;30.568;2023-09-19T00:56:15;9.85;;;4.00;;
71127;SDS011;59249;59.736;30.568;2023-09-19T00:58:47;7.22;;;3.03;;
71127;SDS011;59249;59.736;30.568;2023-09-19T01:01:16;9.93;;;3.40;;
71127;SDS011;59249;59.736;30.568;2023-09-19T01:03:45;9.20;;;3.47;;
71127;SDS011;59249;59.736;30.568;2023-09-19T01:06:15;7.53;;;3.30;;
71127;SDS011;59249;59.736;30.568;2023-09-19T01:08:44;7.97;;;3.13;;
71127;SDS011;59249;59.736;30.568;2023-09-19T01:11:17;8.35;;;2.97;;
71127;SDS011;59249;59.736;30.568;2023-09-19T01:13:56;8.75;;;3.25;;
71127;SDS011;59249;59.736;30.568;2023-09-19T01:16:35;6.70;;;2.00;;
71127;SDS011;59249;59.736;30.568;2023-09-19T01:19:24;5.68;;;1.98;;
71127;SDS011;59249;59.736;30.568;2023-09-19T01:22:21;6.75;;;2.05;;
71127;SDS011;59249;59.736;30.568;2023-09-19T01:25:07;6.07;;;1.90;;
71127;SDS011;59249;59.736;30.568;2023-09-19T01:28:19;7.03;;;1.42;;
71127;SDS011;59249;59.736;30.568;2023-09-19T01:31:06;5.07;;;1.30;;
71127;SDS011;59249;59.736;30.568;2023-09-19T01:33:54;4.60;;;1.40;;
71127;SDS011;59249;59.736;30.568;2023-09-19T01:36:33;6.47;;;1.45;;
71127;SDS011;59249;59.736;30.568;2023-09-19T01:39:06;6.20;;;1.30;;
71127;SDS011;59249;59.736;30.568;2023-09-19T01:41:54;4.30;;;1.30;;
71127;SDS011;59249;59.736;30.568;2023-09-19T01:44:37;4.20;;;1.40;;
71127;SDS011;59249;59.736;30.568;2023-09-19T01:47:26;3.97;;;1.20;;
71127;SDS011;59249;59.736;30.568;2023-09-19T01:50:04;6.78;;;1.20;;
71127;SDS011;59249;59.736;30.568;2023-09-19T01:52:47;5.78;;;1.38;;
71127;SDS011;59249;59.736;30.568;2023-09-19T01:55:27;5.90;;;1.90;;
71127;SDS011;59249;59.736;30.568;2023-09-19T01:58:01;4.60;;;1.40;;
71127;SDS011;59249;59.736;30.568;2023-09-19T02:00:37;8.23;;;1.35;;
71127;SDS011;59249;59.736;30.568;2023-09-19T02:03:11;6.03;;;1.83;;
71127;SDS011;59249;59.736;30.568;2023-09-19T02:05:41;4.18;;;1.55;;
71127;SDS011;59249;59.736;30.568;2023-09-19T02:08:18;5.95;;;1.67;;
71127;SDS011;59249;59.736;30.568;2023-09-19T02:10:51;5.33;;;1.40;;
71127;SDS011;59249;59.736;30.568;2023-09-19T02:13:20;4.30;;;1.92;;
71127;SDS011;59249;59.736;30.568;2023-09-19T02:15:54;6.45;;;1.48;;
71127;SDS011;59249;59.736;30.568;2023-09-19T02:18:27;5.00;;;1.60;;
71127;SDS011;59249;59.736;30.568;2023-09-19T02:20:57;6.72;;;1.50;;
71127;SDS011;59249;59.736;30.568;2023-09-19T02:23:26;4.73;;;1.33;;
71127;SDS011;59249;59.736;30.568;2023-09-19T02:25:56;5.15;;;1.92;;
71127;SDS011;59249;59.736;30.568;2023-09-19T02:28:27;4.85;;;1.50;;
71127;SDS011;59249;59.736;30.568;2023-09-19T02:30:59;5.30;;;1.55;;
71127;SDS011;59249;59.736;30.568;2023-09-19T02:33:29;3.85;;;1.40;;
71127;SDS011;59249;59.736;30.568;2023-09-19T02:35:59;4.37;;;1.40;;
71127;SDS011;59249;59.736;30.568;2023-09-19T02:38:30;4.68;;;1.55;;
71127;SDS011;59249;59.736;30.568;2023-09-19T02:40:59;5.70;;;1.25;;
71127;SDS011;59249;59.736;30.568;2023-09-19T02:43:28;6.32;;;1.42;;
71127;SDS011;59249;59.736;30.568;2023-09-19T02:45:57;4.78;;;1.60;;
71127;SDS011;59249;59.736;30.568;2023-09-19T02:48:26;5.10;;;1.70;;
71127;SDS011;59249;59.736;30.568;2023-09-19T02:50:57;4.07;;;1.20;;
71127;SDS011;59249;59.736;30.568;2023-09-19T02:53:30;5.00;;;1.45;;
71127;SDS011;59249;59.736;30.568;2023-09-19T02:55:59;5.43;;;1.50;;
71127;SDS011;59249;59.736;30.568;2023-09-19T02:58:28;6.93;;;1.67;;
71127;SDS011;59249;59.736;30.568;2023-09-19T03:00:57;4.37;;;1.30;;
71127;SDS011;59249;59.736;30.568;2023-09-19T03:03:26;5.30;;;1.88;;
71127;SDS011;59249;59.736;30.568;2023-09-19T03:05:56;4.70;;;1.23;;
71127;SDS011;59249;59.736;30.568;2023-09-19T03:08:26;6.38;;;1.35;;
71127;SDS011;59249;59.736;30.568;2023-09-19T03:10:55;4.30;;;1.25;;
71127;SDS011;59249;59.736;30.568;2023-09-19T03:13:23;3.83;;;1.00;;
71127;SDS011;59249;59.736;30.568;2023-09-19T03:15:54;3.63;;;1.17;;
71127;SDS011;59249;59.736;30.568;2023-09-19T03:18:26;4.22;;;1.20;;
71127;SDS011;59249;59.736;30.568;2023-09-19T03:20:56;7.40;;;1.60;;
71127;SDS011;59249;59.736;30.568;2023-09-19T03:23:28;4.03;;;1.25;;
71127;SDS011;59249;59.736;30.568;2023-09-19T03:26:00;3.53;;;1.20;;
71127;SDS011;59249;59.736;30.568;2023-09-19T03:28:29;3.42;;;1.02;;
71127;SDS011;59249;59.736;30.568;2023-09-19T03:31:01;3.67;;;0.70;;
71127;SDS011;59249;59.736;30.568;2023-09-19T03:33:34;3.90;;;1.10;;
71127;SDS011;59249;59.736;30.568;2023-09-19T03:36:06;3.83;;;1.00;;
71127;SDS011;59249;59.736;30.568;2023-09-19T03:38:34;3.57;;;0.67;;
71127;SDS011;59249;59.736;30.568;2023-09-19T03:41:06;3.35;;;0.60;;
71127;SDS011;59249;59.736;30.568;2023-09-19T03:43:36;3.10;;;0.75;;
71127;SDS011;59249;59.736;30.568;2023-09-19T03:46:05;2.67;;;0.90;;
71127;SDS011;59249;59.736;30.568;2023-09-19T03:48:37;2.92;;;0.68;;
71127;SDS011;59249;59.736;30.568;2023-09-19T03:51:08;2.33;;;0.70;;
71127;SDS011;59249;59.736;30.568;2023-09-19T03:53:38;2.33;;;0.60;;
71127;SDS011;59249;59.736;30.568;2023-09-19T03:56:08;3.05;;;0.85;;
71127;SDS011;59249;59.736;30.568;2023-09-19T03:58:38;1.88;;;0.60;;
71127;SDS011;59249;59.736;30.568;2023-09-19T04:01:07;3.97;;;0.70;;
71127;SDS011;59249;59.736;30.568;2023-09-19T04:03:36;3.27;;;0.70;;
71127;SDS011;59249;59.736;30.568;2023-09-19T04:06:19;3.88;;;0.68;;
71127;SDS011;59249;59.736;30.568;2023-09-19T04:08:49;4.50;;;0.90;;
71127;SDS011;59249;59.736;30.568;2023-09-19T04:11:18;4.45;;;1.10;;
71127;SDS011;59249;59.736;30.568;2023-09-19T04:13:48;3.35;;;1.15;;
71127;SDS011;59249;59.736;30.568;2023-09-19T04:16:17;2.40;;;0.40;;
71127;SDS011;59249;59.736;30.568;2023-09-19T04:18:47;2.65;;;0.80;;
71127;SDS011;59249;59.736;30.568;2023-09-19T04:21:22;2.60;;;0.60;;
71127;SDS011;59249;59.736;30.568;2023-09-19T04:23:51;2.50;;;0.60;;
71127;SDS011;59249;59.736;30.568;2023-09-19T04:26:20;2.40;;;0.50;;
71127;SDS011;59249;59.736;30.568;2023-09-19T04:28:52;2.33;;;0.60;;
71127;SDS011;59249;59.736;30.568;2023-09-19T04:31:25;2.10;;;0.50;;
71127;SDS011;59249;59.736;30.568;2023-09-19T04:33:54;4.18;;;1.02;;
71127;SDS011;59249;59.736;30.568;2023-09-19T04:36:25;7.20;;;1.20;;
71127;SDS011;59249;59.736;30.568;2023-09-19T04:39:02;4.00;;;0.50;;
71127;SDS011;59249;59.736;30.568;2023-09-19T04:41:34;3.17;;;0.60;;
71127;SDS011;59249;59.736;30.568;2023-09-19T04:44:06;4.10;;;0.70;;
71127;SDS011;59249;59.736;30.568;2023-09-19T04:46:42;3.67;;;0.60;;
71127;SDS011;59249;59.736;30.568;2023-09-19T04:49:12;3.00;;;0.60;;
71127;SDS011;59249;59.736;30.568;2023-09-19T04:51:48;3.28;;;0.90;;
71127;SDS011;59249;59.736;30.568;2023-09-19T04:54:17;2.97;;;0.73;;
71127;SDS011;59249;59.736;30.568;2023-09-19T04:56:47;3.55;;;0.75;;
71127;SDS011;59249;59.736;30.568;2023-09-19T04:59:22;2.88;;;0.65;;
71127;SDS011;59249;59.736;30.568;2023-09-19T05:01:51;2.80;;;0.70;;
71127;SDS011;59249;59.736;30.568;2023-09-19T05:04:21;3.75;;;0.68;;
71127;SDS011;59249;59.736;30.568;2023-09-19T05:09:48;2.47;;;0.50;;
71127;SDS011;59249;59.736;30.568;2023-09-19T05:12:17;2.70;;;0.70;;
71127;SDS011;59249;59.736;30.568;2023-09-19T05:14:47;2.63;;;0.75;;
71127;SDS011;59249;59.736;30.568;2023-09-19T05:17:19;5.22;;;0.70;;
71127;SDS011;59249;59.736;30.568;2023-09-19T05:19:48;6.83;;;1.43;;
71127;SDS011;59249;59.736;30.568;2023-09-19T05:22:19;3.40;;;0.90;;
71127;SDS011;59249;59.736;30.568;2023-09-19T05:24:50;3.58;;;0.70;;
71127;SDS011;59249;59.736;30.568;2023-09-19T05:27:19;4.75;;;1.10;;
71127;SDS011;59249;59.736;30.568;2023-09-19T05:29:53;4.55;;;1.52;;
71127;SDS011;59249;59.736;30.568;2023-09-19T05:32:22;6.00;;;1.00;;
71127;SDS011;59249;59.736;30.568;2023-09-19T05:34:51;2.58;;;0.88;;
71127;SDS011;59249;59.736;30.568;2023-09-19T05:37:24;4.55;;;1.30;;
71127;SDS011;59249;59.736;30.568;2023-09-19T05:39:54;6.13;;;1.10;;
71127;SDS011;59249;59.736;30.568;2023-09-19T05:42:23;2.40;;;0.82;;
71127;SDS011;59249;59.736;30.568;2023-09-19T05:44:52;4.37;;;1.13;;
71127;SDS011;59249;59.736;30.568;2023-09-19T05:47:32;5.72;;;1.13;;
71127;SDS011;59249;59.736;30.568;2023-09-19T05:50:02;5.28;;;1.00;;
71127;SDS011;59249;59.736;30.568;2023-09-19T05:52:36;5.22;;;0.98;;
71127;SDS011;59249;59.736;30.568;2023-09-19T05:55:12;2.88;;;0.77;;
71127;SDS011;59249;59.736;30.568;2023-09-19T05:57:49;4.07;;;1.03;;
71127;SDS011;59249;59.736;30.568;2023-09-19T06:00:20;5.25;;;1.15;;
71127;SDS011;59249;59.736;30.568;2023-09-19T06:02:51;3.92;;;1.20;;
71127;SDS011;59249;59.736;30.568;2023-09-19T06:05:21;4.70;;;1.40;;
71127;SDS011;59249;59.736;30.568;2023-09-19T06:07:56;4.35;;;1.10;;
71127;SDS011;59249;59.736;30.568;2023-09-19T06:10:29;4.20;;;1.40;;
71127;SDS011;59249;59.736;30.568;2023-09-19T06:13:03;8.75;;;1.75;;
71127;SDS011;59249;59.736;30.568;2023-09-19T06:16:03;3.38;;;1.08;;
71127;SDS011;59249;59.736;30.568;2023-09-19T06:18:35;6.97;;;1.73;;
71127;SDS011;59249;59.736;30.568;2023-09-19T06:21:12;6.85;;;1.30;;
71127;SDS011;59249;59.736;30.568;2023-09-19T06:23:48;6.63;;;1.30;;
71127;SDS011;59249;59.736;30.568;2023-09-19T06:26:23;5.43;;;1.25;;
71127;SDS011;59249;59.736;30.568;2023-09-19T06:28:54;6.28;;;1.60;;
71127;SDS011;59249;59.736;30.568;2023-09-19T06:31:28;5.53;;;1.92;;
71127;SDS011;59249;59.736;30.568;2023-09-19T06:33:58;5.07;;;1.48;;
71127;SDS011;59249;59.736;30.568;2023-09-19T06:36:28;4.10;;;1.30;;
71127;SDS011;59249;59.736;30.568;2023-09-19T06:39:07;5.18;;;1.63;;
71127;SDS011;59249;59.736;30.568;2023-09-19T06:41:37;4.78;;;1.27;;
71127;SDS011;59249;59.736;30.568;2023-09-19T06:44:16;4.15;;;1.40;;
71127;SDS011;59249;59.736;30.568;2023-09-19T06:46:47;5.97;;;1.45;;
71127;SDS011;59249;59.736;30.568;2023-09-19T06:49:21;4.87;;;1.50;;
71127;SDS011;59249;59.736;30.568;2023-09-19T06:51:56;4.50;;;1.30;;
71127;SDS011;59249;59.736;30.568;2023-09-19T06:54:27;4.57;;;1.50;;
71127;SDS011;59249;59.736;30.568;2023-09-19T06:57:04;4.55;;;1.60;;
71127;SDS011;59249;59.736;30.568;2023-09-19T06:59:37;7.28;;;1.60;;
71127;SDS011;59249;59.736;30.568;2023-09-19T07:02:13;6.60;;;1.97;;
71127;SDS011;59249;59.736;30.568;2023-09-19T07:04:56;5.65;;;1.83;;
71127;SDS011;59249;59.736;30.568;2023-09-19T07:07:29;4.50;;;1.65;;
71127;SDS011;59249;59.736;30.568;2023-09-19T07:10:03;5.38;;;1.80;;
71127;SDS011;59249;59.736;30.568;2023-09-19T07:12:38;5.95;;;1.65;;
71127;SDS011;59249;59.736;30.568;2023-09-19T07:15:12;5.43;;;1.30;;
71127;SDS011;59249;59.736;30.568;2023-09-19T07:17:42;5.22;;;1.83;;
71127;SDS011;59249;59.736;30.568;2023-09-19T07:20:17;5.22;;;1.50;;
71127;SDS011;59249;59.736;30.568;2023-09-19T07:22:47;4.68;;;1.73;;
71127;SDS011;59249;59.736;30.568;2023-09-19T07:25:20;4.78;;;1.73;;
71127;SDS011;59249;59.736;30.568;2023-09-19T07:27:50;5.03;;;1.60;;
71127;SDS011;59249;59.736;30.568;2023-09-19T07:30:23;7.18;;;2.20;;
71127;SDS011;59249;59.736;30.568;2023-09-19T07:32:53;4.75;;;1.73;;
71127;SDS011;59249;59.736;30.568;2023-09-19T07:35:28;7.78;;;1.63;;
71127;SDS011;59249;59.736;30.568;2023-09-19T07:38:00;4.60;;;2.05;;
71127;SDS011;59249;59.736;30.568;2023-09-19T07:40:45;7.30;;;1.80;;
71127;SDS011;59249;59.736;30.568;2023-09-19T07:43:39;5.30;;;1.65;;
71127;SDS011;59249;59.736;30.568;2023-09-19T07:46:10;5.30;;;2.20;;
71127;SDS011;59249;59.736;30.568;2023-09-19T07:48:39;8.48;;;2.00;;
71127;SDS011;59249;59.736;30.568;2023-09-19T07:51:15;6.90;;;2.35;;
71127;SDS011;59249;59.736;30.568;2023-09-19T07:53:46;4.90;;;1.80;;
71127;SDS011;59249;59.736;30.568;2023-09-19T07:56:17;6.03;;;2.67;;
71127;SDS011;59249;59.736;30.568;2023-09-19T07:58:48;6.68;;;2.40;;
71127;SDS011;59249;59.736;30.568;2023-09-19T08:01:32;5.60;;;2.30;;
71127;SDS011;59249;59.736;30.568;2023-09-19T08:04:20;6.82;;;2.35;;
71127;SDS011;59249;59.736;30.568;2023-09-19T08:06:54;6.07;;;2.47;;
71127;SDS011;59249;59.736;30.568;2023-09-19T08:09:23;6.70;;;2.90;;
71127;SDS011;59249;59.736;30.568;2023-09-19T08:11:55;7.30;;;2.45;;
71127;SDS011;59249;59.736;30.568;2023-09-19T08:14:24;6.80;;;2.40;;
71127;SDS011;59249;59.736;30.568;2023-09-19T08:16:56;6.00;;;2.40;;
71127;SDS011;59249;59.736;30.568;2023-09-19T08:19:29;6.20;;;2.50;;
71127;SDS011;59249;59.736;30.568;2023-09-19T08:22:03;6.50;;;2.78;;
71127;SDS011;59249;59.736;30.568;2023-09-19T08:24:35;5.32;;;2.17;;
71127;SDS011;59249;59.736;30.568;2023-09-19T08:27:07;7.47;;;3.35;;
71127;SDS011;59249;59.736;30.568;2023-09-19T08:29:38;5.85;;;2.90;;
71127;SDS011;59249;59.736;30.568;2023-09-19T08:32:08;7.90;;;2.80;;
71127;SDS011;59249;59.736;30.568;2023-09-19T08:34:37;6.22;;;2.83;;
71127;SDS011;59249;59.736;30.568;2023-09-19T08:37:06;8.10;;;3.20;;
71127;SDS011;59249;59.736;30.568;2023-09-19T08:39:43;7.15;;;3.53;;
71127;SDS011;59249;59.736;30.568;2023-09-19T08:42:15;8.13;;;2.92;;
71127;SDS011;59249;59.736;30.568;2023-09-19T08:44:46;8.23;;;3.43;;
71127;SDS011;59249;59.736;30.568;2023-09-19T08:47:35;6.95;;;3.05;;
71127;SDS011;59249;59.736;30.568;2023-09-19T08:50:17;7.95;;;2.60;;
71127;SDS011;59249;59.736;30.568;2023-09-19T08:52:55;5.97;;;2.70;;
71127;SDS011;59249;59.736;30.568;2023-09-19T08:55:37;7.43;;;3.92;;
71127;SDS011;59249;59.736;30.568;2023-09-19T09:01:08;9.40;;;4.20;;
71127;SDS011;59249;59.736;30.568;2023-09-19T09:03:39;6.60;;;2.90;;
71127;SDS011;59249;59.736;30.568;2023-09-19T09:06:18;7.38;;;3.33;;
71127;SDS011;59249;59.736;30.568;2023-09-19T09:08:53;6.20;;;2.83;;
71127;SDS011;59249;59.736;30.568;2023-09-19T09:11:26;8.67;;;3.30;;
71127;SDS011;59249;59.736;30.568;2023-09-19T09:13:58;8.68;;;3.47;;
71127;SDS011;59249;59.736;30.568;2023-09-19T09:16:29;6.85;;;3.30;;
71127;SDS011;59249;59.736;30.568;2023-09-19T09:18:59;6.88;;;3.05;;
71127;SDS011;59249;59.736;30.568;2023-09-19T09:21:31;6.03;;;2.97;;
71127;SDS011;59249;59.736;30.568;2023-09-19T09:26:57;6.47;;;3.40;;
71127;SDS011;59249;59.736;30.568;2023-09-19T09:29:44;7.00;;;3.22;;
71127;SDS011;59249;59.736;30.568;2023-09-19T09:32:31;7.43;;;3.15;;
71127;SDS011;59249;59.736;30.568;2023-09-19T09:35:16;7.55;;;3.25;;
71127;SDS011;59249;59.736;30.568;2023-09-19T09:37:50;8.30;;;3.50;;
71127;SDS011;59249;59.736;30.568;2023-09-19T09:40:45;8.18;;;3.47;;
71127;SDS011;59249;59.736;30.568;2023-09-19T09:43:39;8.15;;;3.35;;
71127;SDS011;59249;59.736;30.568;2023-09-19T09:46:15;7.82;;;3.72;;
71127;SDS011;59249;59.736;30.568;2023-09-19T09:49:05;11.13;;;4.18;;
71127;SDS011;59249;59.736;30.568;2023-09-19T09:51:46;8.73;;;3.63;;
71127;SDS011;59249;59.736;30.568;2023-09-19T09:54:57;8.23;;;4.38;;
71127;SDS011;59249;59.736;30.568;2023-09-19T09:57:49;8.15;;;3.90;;
71127;SDS011;59249;59.736;30.568;2023-09-19T10:01:04;8.13;;;4.00;;
71127;SDS011;59249;59.736;30.568;2023-09-19T10:03:56;8.70;;;4.30;;
71127;SDS011;59249;59.736;30.568;2023-09-19T10:06:39;8.47;;;4.30;;
71127;SDS011;59249;59.736;30.568;2023-09-19T10:09:13;7.05;;;3.67;;
71127;SDS011;59249;59.736;30.568;2023-09-19T10:11:59;6.78;;;3.88;;
71127;SDS011;59249;59.736;30.568;2023-09-19T10:14:37;8.50;;;4.18;;
71127;SDS011;59249;59.736;30.568;2023-09-19T10:17:12;9.57;;;4.32;;
71127;SDS011;59249;59.736;30.568;2023-09-19T10:19:54;7.60;;;4.03;;
71127;SDS011;59249;59.736;30.568;2023-09-19T10:22:26;8.30;;;4.40;;
71127;SDS011;59249;59.736;30.568;2023-09-19T10:24:59;8.85;;;4.57;;
71127;SDS011;59249;59.736;30.568;2023-09-19T10:27:34;8.52;;;4.55;;
71127;SDS011;59249;59.736;30.568;2023-09-19T10:30:06;8.85;;;5.20;;
71127;SDS011;59249;59.736;30.568;2023-09-19T10:32:39;9.47;;;5.00;;
71127;SDS011;59249;59.736;30.568;2023-09-19T10:35:30;8.90;;;4.70;;
71127;SDS011;59249;59.736;30.568;2023-09-19T10:38:01;9.40;;;4.90;;
71127;SDS011;59249;59.736;30.568;2023-09-19T10:40:36;9.02;;;4.60;;
71127;SDS011;59249;59.736;30.568;2023-09-19T10:43:12;10.63;;;5.53;;
71127;SDS011;59249;59.736;30.568;2023-09-19T10:45:46;11.60;;;5.53;;
71127;SDS011;59249;59.736;30.568;2023-09-19T10:48:16;11.43;;;4.70;;
71127;SDS011;59249;59.736;30.568;2023-09-19T10:50:55;10.05;;;4.93;;
71127;SDS011;59249;59.736;30.568;2023-09-19T10:53:39;8.73;;;4.47;;
71127;SDS011;59249;59.736;30.568;2023-09-19T10:56:19;8.65;;;4.90;;
71127;SDS011;59249;59.736;30.568;2023-09-19T10:59:05;9.43;;;4.97;;
71127;SDS011;59249;59.736;30.568;2023-09-19T11:01:42;8.13;;;4.80;;
71127;SDS011;59249;59.736;30.568;2023-09-19T11:04:21;11.57;;;5.22;;
71127;SDS011;59249;59.736;30.568;2023-09-19T11:07:02;8.82;;;4.68;;
71127;SDS011;59249;59.736;30.568;2023-09-19T11:09:43;9.50;;;5.00;;
71127;SDS011;59249;59.736;30.568;2023-09-19T11:18:53;9.02;;;5.03;;
71127;SDS011;59249;59.736;30.568;2023-09-19T11:24:33;12.85;;;7.18;;
71127;SDS011;59249;59.736;30.568;2023-09-19T11:27:13;8.63;;;4.73;;
71127;SDS011;59249;59.736;30.568;2023-09-19T11:29:45;12.38;;;5.38;;
71127;SDS011;59249;59.736;30.568;2023-09-19T11:32:16;9.68;;;4.40;;
71127;SDS011;59249;59.736;30.568;2023-09-19T11:35:09;9.75;;;5.65;;
71127;SDS011;59249;59.736;30.568;2023-09-19T11:40:39;9.57;;;4.83;;
71127;SDS011;59249;59.736;30.568;2023-09-19T11:43:31;9.05;;;4.97;;
71127;SDS011;59249;59.736;30.568;2023-09-19T11:46:06;9.70;;;4.18;;
71127;SDS011;59249;59.736;30.568;2023-09-19T11:48:37;9.98;;;4.45;;
71127;SDS011;59249;59.736;30.568;2023-09-19T11:51:12;8.23;;;4.60;;
71127;SDS011;59249;59.736;30.568;2023-09-19T11:53:46;9.57;;;4.27;;
71127;SDS011;59249;59.736;30.568;2023-09-19T11:56:19;7.55;;;4.00;;
71127;SDS011;59249;59.736;30.568;2023-09-19T11:58:52;9.98;;;5.22;;
71127;SDS011;59249;59.736;30.568;2023-09-19T12:01:23;10.05;;;4.30;;
71127;SDS011;59249;59.736;30.568;2023-09-19T12:03:57;8.65;;;4.28;;
71127;SDS011;59249;59.736;30.568;2023-09-19T12:06:31;8.50;;;4.40;;
71127;SDS011;59249;59.736;30.568;2023-09-19T12:09:06;8.52;;;4.30;;
71127;SDS011;59249;59.736;30.568;2023-09-19T12:11:45;9.07;;;5.20;;
71127;SDS011;59249;59.736;30.568;2023-09-19T12:14:21;8.07;;;4.32;;
71127;SDS011;59249;59.736;30.568;2023-09-19T12:16:53;7.70;;;4.70;;
71127;SDS011;59249;59.736;30.568;2023-09-19T12:19:23;10.33;;;4.77;;
71127;SDS011;59249;59.736;30.568;2023-09-19T12:21:54;8.45;;;4.38;;
71127;SDS011;59249;59.736;30.568;2023-09-19T12:24:25;8.38;;;4.53;;
71127;SDS011;59249;59.736;30.568;2023-09-19T12:27:02;7.63;;;4.40;;
71127;SDS011;59249;59.736;30.568;2023-09-19T12:29:41;17.92;;;5.72;;
71127;SDS011;59249;59.736;30.568;2023-09-19T12:32:12;8.93;;;4.10;;
71127;SDS011;59249;59.736;30.568;2023-09-19T12:34:50;8.13;;;4.38;;
71127;SDS011;59249;59.736;30.568;2023-09-19T12:37:22;10.15;;;4.53;;
71127;SDS011;59249;59.736;30.568;2023-09-19T12:40:03;8.70;;;4.57;;
71127;SDS011;59249;59.736;30.568;2023-09-19T12:42:46;6.90;;;3.75;;
71127;SDS011;59249;59.736;30.568;2023-09-19T12:45:25;7.67;;;4.13;;
71127;SDS011;59249;59.736;30.568;2023-09-19T12:51:04;7.10;;;4.20;;
71127;SDS011;59249;59.736;30.568;2023-09-19T12:53:40;8.90;;;4.88;;
71127;SDS011;59249;59.736;30.568;2023-09-19T12:56:19;8.10;;;4.05;;
71127;SDS011;59249;59.736;30.568;2023-09-19T12:58:58;8.00;;;4.27;;
71127;SDS011;59249;59.736;30.568;2023-09-19T13:01:34;9.25;;;4.18;;
71127;SDS011;59249;59.736;30.568;2023-09-19T13:04:13;8.82;;;4.68;;
71127;SDS011;59249;59.736;30.568;2023-09-19T13:06:51;9.90;;;4.65;;
71127;SDS011;59249;59.736;30.568;2023-09-19T13:09:34;10.25;;;4.45;;
71127;SDS011;59249;59.736;30.568;2023-09-19T13:15:15;9.60;;;5.15;;
71127;SDS011;59249;59.736;30.568;2023-09-19T13:18:11;6.60;;;3.92;;
71127;SDS011;59249;59.736;30.568;2023-09-19T13:23:37;8.68;;;4.63;;
71127;SDS011;59249;59.736;30.568;2023-09-19T13:26:11;8.50;;;4.50;;
71127;SDS011;59249;59.736;30.568;2023-09-19T13:28:40;8.65;;;4.85;;
71127;SDS011;59249;59.736;30.568;2023-09-19T13:31:20;8.52;;;4.35;;
71127;SDS011;59249;59.736;30.568;2023-09-19T13:33:52;7.47;;;4.60;;
71127;SDS011;59249;59.736;30.568;2023-09-19T13:36:20;8.13;;;3.90;;
71127;SDS011;59249;59.736;30.568;2023-09-19T13:39:04;8.63;;;4.80;;
71127;SDS011;59249;59.736;30.568;2023-09-19T13:41:40;8.88;;;4.38;;
71127;SDS011;59249;59.736;30.568;2023-09-19T13:44:10;7.45;;;4.60;;
71127;SDS011;59249;59.736;30.568;2023-09-19T13:46:45;12.23;;;4.78;;
71127;SDS011;59249;59.736;30.568;2023-09-19T13:49:21;8.50;;;4.32;;
71127;SDS011;59249;59.736;30.568;2023-09-19T13:51:54;9.20;;;4.90;;
71127;SDS011;59249;59.736;30.568;2023-09-19T13:54:28;7.32;;;4.25;;
71127;SDS011;59249;59.736;30.568;2023-09-19T13:57:11;7.78;;;4.78;;
71127;SDS011;59249;59.736;30.568;2023-09-19T13:59:42;9.05;;;4.20;;
71127;SDS011;59249;59.736;30.568;2023-09-19T14:02:13;8.30;;;4.43;;
71127;SDS011;59249;59.736;30.568;2023-09-19T14:04:53;11.57;;;5.00;;
71127;SDS011;59249;59.736;30.568;2023-09-19T14:07:30;10.52;;;4.82;;
71127;SDS011;59249;59.736;30.568;2023-09-19T14:10:01;9.45;;;4.95;;
71127;SDS011;59249;59.736;30.568;2023-09-19T14:12:44;9.73;;;4.13;;
71127;SDS011;59249;59.736;30.568;2023-09-19T14:15:14;8.50;;;4.80;;
71127;SDS011;59249;59.736;30.568;2023-09-19T14:18:00;9.40;;;4.73;;
71127;SDS011;59249;59.736;30.568;2023-09-19T14:20:39;9.57;;;5.10;;
71127;SDS011;59249;59.736;30.568;2023-09-19T14:23:21;7.32;;;4.38;;
71127;SDS011;59249;59.736;30.568;2023-09-19T14:25:57;8.10;;;4.50;;
71127;SDS011;59249;59.736;30.568;2023-09-19T14:28:50;8.55;;;4.10;;
71127;SDS011;59249;59.736;30.568;2023-09-19T14:31:20;9.17;;;4.57;;
71127;SDS011;59249;59.736;30.568;2023-09-19T14:33:57;6.82;;;4.00;;
71127;SDS011;59249;59.736;30.568;2023-09-19T14:36:29;8.50;;;4.47;;
71127;SDS011;59249;59.736;30.568;2023-09-19T14:39:04;9.32;;;4.57;;
71127;SDS011;59249;59.736;30.568;2023-09-19T14:41:35;10.57;;;5.18;;
71127;SDS011;59249;59.736;30.568;2023-09-19T14:44:07;12.77;;;6.07;;
71127;SDS011;59249;59.736;30.568;2023-09-19T14:46:38;10.15;;;5.70;;
71127;SDS011;59249;59.736;30.568;2023-09-19T14:49:13;11.20;;;5.18;;
71127;SDS011;59249;59.736;30.568;2023-09-19T14:51:47;10.30;;;5.70;;
71127;SDS011;59249;59.736;30.568;2023-09-19T14:54:17;12.75;;;5.72;;
71127;SDS011;59249;59.736;30.568;2023-09-19T14:56:48;11.90;;;6.07;;
71127;SDS011;59249;59.736;30.568;2023-09-19T14:59:24;11.15;;;5.13;;
71127;SDS011;59249;59.736;30.568;2023-09-19T15:01:56;10.52;;;5.60;;
71127;SDS011;59249;59.736;30.568;2023-09-19T15:04:35;14.25;;;5.50;;
71127;SDS011;59249;59.736;30.568;2023-09-19T15:07:09;10.18;;;4.93;;
71127;SDS011;59249;59.736;30.568;2023-09-19T15:09:43;10.97;;;4.53;;
71127;SDS011;59249;59.736;30.568;2023-09-19T15:12:21;8.60;;;5.05;;
71127;SDS011;59249;59.736;30.568;2023-09-19T15:14:58;9.82;;;5.30;;
71127;SDS011;59249;59.736;30.568;2023-09-19T15:17:37;10.50;;;5.40;;
71127;SDS011;59249;59.736;30.568;2023-09-19T15:20:10;10.30;;;5.55;;
71127;SDS011;59249;59.736;30.568;2023-09-19T15:22:42;9.87;;;4.90;;
71127;SDS011;59249;59.736;30.568;2023-09-19T15:25:17;8.40;;;4.78;;
71127;SDS011;59249;59.736;30.568;2023-09-19T15:27:51;10.13;;;5.75;;
71127;SDS011;59249;59.736;30.568;2023-09-19T15:30:21;11.38;;;5.85;;
71127;SDS011;59249;59.736;30.568;2023-09-19T15:32:52;9.55;;;5.00;;
71127;SDS011;59249;59.736;30.568;2023-09-19T15:35:26;9.30;;;4.47;;
71127;SDS011;59249;59.736;30.568;2023-09-19T15:37:58;10.40;;;5.40;;
71127;SDS011;59249;59.736;30.568;2023-09-19T15:40:28;10.40;;;5.50;;
71127;SDS011;59249;59.736;30.568;2023-09-19T15:43:00;10.77;;;4.80;;
71127;SDS011;59249;59.736;30.568;2023-09-19T15:45:33;8.93;;;5.53;;
71127;SDS011;59249;59.736;30.568;2023-09-19T15:48:29;10.50;;;5.33;;